sensor_id;sensor_type;location;lat;lon;timestamp;P1;durP1;ratioP1;P2;durP2;ratioP2
7154;SDS011;3619;53.784;10.440;2023-10-31T00:02:00;1.80;;;1.80;;
7154;SDS011;3619;53.784;10.440;2023-10-31T00:04:30;1.60;;;1.60;;
7154;SDS011;3619;53.784;10.440;2023-10-31T00:07:03;1.40;;;1.40;;
7154;SDS011;3619;53.784;10.440;2023-10-31T00:09:35;2.20;;;2.10;;
7154;SDS011;3619;53.784;10.440;2023-10-31T00:12:01;1.60;;;1.60;;
7154;SDS011;3619;53.784;10.440;2023-10-31T00:14:32;1.80;;;1.80;;
7154;SDS011;3619;53.784;10.440;2023-10-31T00:16:58;1.67;;;1.67;;
7154;SDS011;3619;53.784;10.440;2023-10-31T00:19:25;1.80;;;1.80;;
7154;SDS011;3619;53.784;10.440;2023-10-31T00:21:54;2.03;;;1.97;;
7154;SDS011;3619;53.784;10.440;2023-10-31T00:24:23;2.30;;;2.20;;
7154;SDS011;3619;53.784;10.440;2023-10-31T00:26:51;2.20;;;2.10;;
7154;SDS011;3619;53.784;10.440;2023-10-31T00:29:18;1.80;;;1.80;;
7154;SDS011;3619;53.784;10.440;2023-10-31T00:31:47;1.70;;;1.70;;
7154;SDS011;3619;53.784;10.440;2023-10-31T00:34:14;1.60;;;1.60;;
7154;SDS011;3619;53.784;10.440;2023-10-31T00:36:44;1.80;;;1.80;;
7154;SDS011;3619;53.784;10.440;2023-10-31T00:39:15;1.27;;;1.27;;
7154;SDS011;3619;53.784;10.440;2023-10-31T00:41:43;1.60;;;1.60;;
7154;SDS011;3619;53.784;10.440;2023-10-31T00:44:12;1.20;;;1.20;;
7154;SDS011;3619;53.784;10.440;2023-10-31T00:46:39;1.60;;;1.53;;
7154;SDS011;3619;53.784;10.440;2023-10-31T00:49:05;1.43;;;1.43;;
7154;SDS011;3619;53.784;10.440;2023-10-31T00:51:35;1.40;;;1.40;;
7154;SDS011;3619;53.784;10.440;2023-10-31T00:54:04;1.30;;;1.30;;
7154;SDS011;3619;53.784;10.440;2023-10-31T00:56:32;1.97;;;1.90;;
7154;SDS011;3619;53.784;10.440;2023-10-31T00:58:59;1.50;;;1.50;;
7154;SDS011;3619;53.784;10.440;2023-10-31T01:01:26;1.63;;;1.63;;
7154;SDS011;3619;53.784;10.440;2023-10-31T01:03:53;1.70;;;1.70;;
7154;SDS011;3619;53.784;10.440;2023-10-31T01:06:20;1.83;;;1.73;;
7154;SDS011;3619;53.784;10.440;2023-10-31T01:08:46;1.87;;;1.80;;
7154;SDS011;3619;53.784;10.440;2023-10-31T01:11:13;2.13;;;2.03;;
7154;SDS011;3619;53.784;10.440;2023-10-31T01:13:41;1.53;;;1.53;;
7154;SDS011;3619;53.784;10.440;2023-10-31T01:16:08;1.67;;;1.67;;
7154;SDS011;3619;53.784;10.440;2023-10-31T01:18:35;1.70;;;1.70;;
7154;SDS011;3619;53.784;10.440;2023-10-31T01:21:02;1.70;;;1.70;;
7154;SDS011;3619;53.784;10.440;2023-10-31T01:23:29;2.00;;;1.90;;
7154;SDS011;3619;53.784;10.440;2023-10-31T01:25:55;1.70;;;1.70;;
7154;SDS011;3619;53.784;10.440;2023-10-31T01:28:22;1.80;;;1.80;;
7154;SDS011;3619;53.784;10.440;2023-10-31T01:30:53;2.40;;;2.20;;
7154;SDS011;3619;53.784;10.440;2023-10-31T01:33:25;2.63;;;2.53;;
7154;SDS011;3619;53.784;10.440;2023-10-31T01:35:52;2.23;;;2.13;;
7154;SDS011;3619;53.784;10.440;2023-10-31T01:38:22;2.90;;;2.80;;
7154;SDS011;3619;53.784;10.440;2023-10-31T01:40:53;3.80;;;3.50;;
7154;SDS011;3619;53.784;10.440;2023-10-31T01:43:29;3.43;;;3.13;;
7154;SDS011;3619;53.784;10.440;2023-10-31T01:46:02;2.83;;;2.73;;
7154;SDS011;3619;53.784;10.440;2023-10-31T01:48:30;3.03;;;2.93;;
7154;SDS011;3619;53.784;10.440;2023-10-31T01:50:58;2.60;;;2.50;;
7154;SDS011;3619;53.784;10.440;2023-10-31T01:53:32;2.80;;;2.70;;
7154;SDS011;3619;53.784;10.440;2023-10-31T01:56:07;2.40;;;2.30;;
7154;SDS011;3619;53.784;10.440;2023-10-31T01:58:35;3.70;;;3.60;;
7154;SDS011;3619;53.784;10.440;2023-10-31T02:01:08;4.03;;;3.73;;
7154;SDS011;3619;53.784;10.440;2023-10-31T02:03:37;3.20;;;3.10;;
7154;SDS011;3619;53.784;10.440;2023-10-31T02:06:04;3.30;;;3.20;;
7154;SDS011;3619;53.784;10.440;2023-10-31T02:08:31;3.97;;;3.87;;
7154;SDS011;3619;53.784;10.440;2023-10-31T02:10:58;4.70;;;4.50;;
7154;SDS011;3619;53.784;10.440;2023-10-31T02:13:25;3.93;;;3.83;;
7154;SDS011;3619;53.784;10.440;2023-10-31T02:15:55;4.27;;;4.17;;
7154;SDS011;3619;53.784;10.440;2023-10-31T02:18:23;4.23;;;4.13;;
7154;SDS011;3619;53.784;10.440;2023-10-31T02:20:49;5.37;;;5.17;;
7154;SDS011;3619;53.784;10.440;2023-10-31T02:23:18;5.23;;;5.03;;
7154;SDS011;3619;53.784;10.440;2023-10-31T02:25:44;4.53;;;4.33;;
7154;SDS011;3619;53.784;10.440;2023-10-31T02:28:11;4.47;;;4.30;;
7154;SDS011;3619;53.784;10.440;2023-10-31T02:30:38;4.40;;;4.27;;
7154;SDS011;3619;53.784;10.440;2023-10-31T02:33:05;5.43;;;5.23;;
7154;SDS011;3619;53.784;10.440;2023-10-31T02:35:36;5.63;;;5.43;;
7154;SDS011;3619;53.784;10.440;2023-10-31T02:38:03;5.27;;;5.07;;
7154;SDS011;3619;53.784;10.440;2023-10-31T02:40:31;4.00;;;3.90;;
7154;SDS011;3619;53.784;10.440;2023-10-31T02:42:58;4.17;;;4.07;;
7154;SDS011;3619;53.784;10.440;2023-10-31T02:45:25;4.40;;;4.27;;
7154;SDS011;3619;53.784;10.440;2023-10-31T02:47:51;4.20;;;4.10;;
7154;SDS011;3619;53.784;10.440;2023-10-31T02:50:18;5.40;;;5.13;;
7154;SDS011;3619;53.784;10.440;2023-10-31T02:52:45;4.00;;;3.90;;
7154;SDS011;3619;53.784;10.440;2023-10-31T02:55:12;4.93;;;4.73;;
7154;SDS011;3619;53.784;10.440;2023-10-31T02:57:40;4.60;;;4.40;;
7154;SDS011;3619;53.784;10.440;2023-10-31T03:00:10;5.03;;;4.83;;
7154;SDS011;3619;53.784;10.440;2023-10-31T03:02:38;4.73;;;4.53;;
7154;SDS011;3619;53.784;10.440;2023-10-31T03:05:05;4.67;;;4.47;;
7154;SDS011;3619;53.784;10.440;2023-10-31T03:07:32;5.03;;;4.83;;
7154;SDS011;3619;53.784;10.440;2023-10-31T03:09:59;19.43;;;5.70;;
7154;SDS011;3619;53.784;10.440;2023-10-31T03:12:26;5.20;;;5.00;;
7154;SDS011;3619;53.784;10.440;2023-10-31T03:14:54;5.93;;;5.73;;
7154;SDS011;3619;53.784;10.440;2023-10-31T03:17:21;5.53;;;5.33;;
7154;SDS011;3619;53.784;10.440;2023-10-31T03:19:53;5.57;;;5.37;;
7154;SDS011;3619;53.784;10.440;2023-10-31T03:22:19;5.47;;;5.27;;
7154;SDS011;3619;53.784;10.440;2023-10-31T03:24:46;5.27;;;5.07;;
7154;SDS011;3619;53.784;10.440;2023-10-31T03:27:13;6.70;;;6.37;;
7154;SDS011;3619;53.784;10.440;2023-10-31T03:29:40;5.13;;;4.93;;
7154;SDS011;3619;53.784;10.440;2023-10-31T03:32:08;6.00;;;5.80;;
7154;SDS011;3619;53.784;10.440;2023-10-31T03:34:35;5.67;;;5.47;;
7154;SDS011;3619;53.784;10.440;2023-10-31T03:37:02;6.27;;;5.97;;
7154;SDS011;3619;53.784;10.440;2023-10-31T03:39:32;5.20;;;5.00;;
7154;SDS011;3619;53.784;10.440;2023-10-31T03:41:59;5.47;;;5.27;;
7154;SDS011;3619;53.784;10.440;2023-10-31T03:44:26;6.20;;;6.00;;
7154;SDS011;3619;53.784;10.440;2023-10-31T03:46:53;5.03;;;4.83;;
7154;SDS011;3619;53.784;10.440;2023-10-31T03:49:21;4.60;;;4.40;;
7154;SDS011;3619;53.784;10.440;2023-10-31T03:51:48;4.83;;;4.63;;
7154;SDS011;3619;53.784;10.440;2023-10-31T03:54:14;5.37;;;5.17;;
7154;SDS011;3619;53.784;10.440;2023-10-31T03:56:42;4.97;;;4.77;;
7154;SDS011;3619;53.784;10.440;2023-10-31T03:59:13;5.17;;;4.97;;
7154;SDS011;3619;53.784;10.440;2023-10-31T04:01:43;6.90;;;6.67;;
7154;SDS011;3619;53.784;10.440;2023-10-31T04:04:10;5.90;;;5.70;;
7154;SDS011;3619;53.784;10.440;2023-10-31T04:06:38;5.80;;;5.60;;
7154;SDS011;3619;53.784;10.440;2023-10-31T04:09:06;5.10;;;4.90;;
7154;SDS011;3619;53.784;10.440;2023-10-31T04:11:32;5.93;;;5.73;;
7154;SDS011;3619;53.784;10.440;2023-10-31T04:13:59;5.30;;;5.10;;
7154;SDS011;3619;53.784;10.440;2023-10-31T04:16:26;5.17;;;4.97;;
7154;SDS011;3619;53.784;10.440;2023-10-31T04:18:53;4.97;;;4.77;;
7154;SDS011;3619;53.784;10.440;2023-10-31T04:21:19;5.33;;;5.13;;
7154;SDS011;3619;53.784;10.440;2023-10-31T04:23:48;5.57;;;5.37;;
7154;SDS011;3619;53.784;10.440;2023-10-31T04:26:14;5.50;;;5.30;;
7154;SDS011;3619;53.784;10.440;2023-10-31T04:28:42;5.47;;;5.27;;
7154;SDS011;3619;53.784;10.440;2023-10-31T04:31:09;6.07;;;5.87;;
7154;SDS011;3619;53.784;10.440;2023-10-31T04:33:35;5.77;;;5.57;;
7154;SDS011;3619;53.784;10.440;2023-10-31T04:36:02;5.33;;;5.13;;
7154;SDS011;3619;53.784;10.440;2023-10-31T04:38:30;5.60;;;5.40;;
7154;SDS011;3619;53.784;10.440;2023-10-31T04:40:58;7.43;;;7.13;;
7154;SDS011;3619;53.784;10.440;2023-10-31T04:43:24;6.77;;;6.43;;
7154;SDS011;3619;53.784;10.440;2023-10-31T04:45:51;5.27;;;5.07;;
7154;SDS011;3619;53.784;10.440;2023-10-31T04:48:18;5.43;;;5.23;;
7154;SDS011;3619;53.784;10.440;2023-10-31T04:50:46;7.03;;;6.73;;
7154;SDS011;3619;53.784;10.440;2023-10-31T04:53:12;7.20;;;6.90;;
7154;SDS011;3619;53.784;10.440;2023-10-31T04:55:39;5.97;;;5.77;;
7154;SDS011;3619;53.784;10.440;2023-10-31T04:58:07;5.27;;;5.07;;
7154;SDS011;3619;53.784;10.440;2023-10-31T05:00:34;5.97;;;5.77;;
7154;SDS011;3619;53.784;10.440;2023-10-31T05:03:01;6.20;;;5.87;;
7154;SDS011;3619;53.784;10.440;2023-10-31T05:05:28;7.50;;;5.67;;
7154;SDS011;3619;53.784;10.440;2023-10-31T05:07:55;6.30;;;6.10;;
7154;SDS011;3619;53.784;10.440;2023-10-31T05:10:21;5.77;;;5.57;;
7154;SDS011;3619;53.784;10.440;2023-10-31T05:12:48;5.83;;;5.63;;
7154;SDS011;3619;53.784;10.440;2023-10-31T05:15:20;6.83;;;6.60;;
7154;SDS011;3619;53.784;10.440;2023-10-31T05:17:47;6.33;;;6.13;;
7154;SDS011;3619;53.784;10.440;2023-10-31T05:20:13;6.43;;;6.17;;
7154;SDS011;3619;53.784;10.440;2023-10-31T05:22:40;6.10;;;5.90;;
7154;SDS011;3619;53.784;10.440;2023-10-31T05:25:07;7.27;;;6.97;;
7154;SDS011;3619;53.784;10.440;2023-10-31T05:27:34;6.30;;;6.07;;
7154;SDS011;3619;53.784;10.440;2023-10-31T05:30:01;6.43;;;6.23;;
7154;SDS011;3619;53.784;10.440;2023-10-31T05:32:29;7.47;;;7.17;;
7154;SDS011;3619;53.784;10.440;2023-10-31T05:34:56;8.33;;;7.63;;
7154;SDS011;3619;53.784;10.440;2023-10-31T05:37:23;7.33;;;7.03;;
7154;SDS011;3619;53.784;10.440;2023-10-31T05:39:52;7.00;;;6.70;;
7154;SDS011;3619;53.784;10.440;2023-10-31T05:42:19;7.37;;;7.07;;
7154;SDS011;3619;53.784;10.440;2023-10-31T05:44:46;7.87;;;7.57;;
7154;SDS011;3619;53.784;10.440;2023-10-31T05:47:12;7.40;;;7.00;;
7154;SDS011;3619;53.784;10.440;2023-10-31T05:49:42;6.80;;;6.50;;
7154;SDS011;3619;53.784;10.440;2023-10-31T05:52:09;6.47;;;6.27;;
7154;SDS011;3619;53.784;10.440;2023-10-31T05:54:36;6.97;;;6.73;;
7154;SDS011;3619;53.784;10.440;2023-10-31T05:57:03;8.33;;;8.03;;
7154;SDS011;3619;53.784;10.440;2023-10-31T05:59:31;7.60;;;7.30;;
7154;SDS011;3619;53.784;10.440;2023-10-31T06:01:58;8.97;;;8.63;;
7154;SDS011;3619;53.784;10.440;2023-10-31T06:04:25;8.60;;;8.20;;
7154;SDS011;3619;53.784;10.440;2023-10-31T06:06:53;8.93;;;8.63;;
7154;SDS011;3619;53.784;10.440;2023-10-31T06:09:20;7.67;;;7.37;;
7154;SDS011;3619;53.784;10.440;2023-10-31T06:11:46;8.67;;;8.17;;
7154;SDS011;3619;53.784;10.440;2023-10-31T06:14:13;7.53;;;7.23;;
7154;SDS011;3619;53.784;10.440;2023-10-31T06:16:40;7.63;;;7.33;;
7154;SDS011;3619;53.784;10.440;2023-10-31T06:19:07;7.70;;;7.40;;
7154;SDS011;3619;53.784;10.440;2023-10-31T06:21:34;7.67;;;7.37;;
7154;SDS011;3619;53.784;10.440;2023-10-31T06:24:04;7.00;;;6.73;;
7154;SDS011;3619;53.784;10.440;2023-10-31T06:26:31;7.47;;;6.97;;
7154;SDS011;3619;53.784;10.440;2023-10-31T06:28:57;6.47;;;6.27;;
7154;SDS011;3619;53.784;10.440;2023-10-31T06:31:24;7.20;;;6.90;;
7154;SDS011;3619;53.784;10.440;2023-10-31T06:33:51;6.80;;;6.53;;
7154;SDS011;3619;53.784;10.440;2023-10-31T06:36:19;7.70;;;7.40;;
7154;SDS011;3619;53.784;10.440;2023-10-31T06:38:46;8.17;;;7.73;;
7154;SDS011;3619;53.784;10.440;2023-10-31T06:41:14;6.77;;;6.47;;
7154;SDS011;3619;53.784;10.440;2023-10-31T06:43:41;8.30;;;7.97;;
7154;SDS011;3619;53.784;10.440;2023-10-31T06:46:08;8.83;;;8.50;;
7154;SDS011;3619;53.784;10.440;2023-10-31T06:48:34;8.07;;;7.77;;
7154;SDS011;3619;53.784;10.440;2023-10-31T06:51:02;8.93;;;8.63;;
7154;SDS011;3619;53.784;10.440;2023-10-31T06:53:29;7.73;;;7.43;;
7154;SDS011;3619;53.784;10.440;2023-10-31T06:55:55;8.33;;;7.73;;
7154;SDS011;3619;53.784;10.440;2023-10-31T06:58:24;7.17;;;6.87;;
7154;SDS011;3619;53.784;10.440;2023-10-31T07:00:50;7.27;;;6.97;;
7154;SDS011;3619;53.784;10.440;2023-10-31T07:03:17;6.47;;;6.27;;
7154;SDS011;3619;53.784;10.440;2023-10-31T07:05:44;8.10;;;7.80;;
7154;SDS011;3619;53.784;10.440;2023-10-31T07:08:11;8.60;;;8.10;;
7154;SDS011;3619;53.784;10.440;2023-10-31T07:10:38;7.63;;;7.33;;
7154;SDS011;3619;53.784;10.440;2023-10-31T07:13:05;7.93;;;7.60;;
7154;SDS011;3619;53.784;10.440;2023-10-31T07:15:33;9.50;;;9.10;;
7154;SDS011;3619;53.784;10.440;2023-10-31T07:18:04;7.37;;;7.07;;
7154;SDS011;3619;53.784;10.440;2023-10-31T07:20:31;7.03;;;6.73;;
7154;SDS011;3619;53.784;10.440;2023-10-31T07:22:57;7.90;;;7.60;;
7154;SDS011;3619;53.784;10.440;2023-10-31T07:25:24;6.87;;;6.67;;
7154;SDS011;3619;53.784;10.440;2023-10-31T07:27:51;8.33;;;8.03;;
7154;SDS011;3619;53.784;10.440;2023-10-31T07:30:17;8.13;;;7.83;;
7154;SDS011;3619;53.784;10.440;2023-10-31T07:32:46;8.53;;;8.20;;
7154;SDS011;3619;53.784;10.440;2023-10-31T07:35:12;7.73;;;7.43;;
7154;SDS011;3619;53.784;10.440;2023-10-31T07:37:39;8.20;;;7.77;;
7154;SDS011;3619;53.784;10.440;2023-10-31T07:40:08;7.47;;;7.17;;
7154;SDS011;3619;53.784;10.440;2023-10-31T07:42:36;7.53;;;7.23;;
7154;SDS011;3619;53.784;10.440;2023-10-31T07:45:03;7.43;;;7.13;;
7154;SDS011;3619;53.784;10.440;2023-10-31T07:47:31;7.33;;;7.03;;
7154;SDS011;3619;53.784;10.440;2023-10-31T07:49:59;8.20;;;7.90;;
7154;SDS011;3619;53.784;10.440;2023-10-31T07:52:26;8.73;;;8.43;;
7154;SDS011;3619;53.784;10.440;2023-10-31T07:54:52;8.23;;;7.83;;
7154;SDS011;3619;53.784;10.440;2023-10-31T07:57:21;7.77;;;7.43;;
7154;SDS011;3619;53.784;10.440;2023-10-31T07:59:51;8.53;;;8.23;;
7154;SDS011;3619;53.784;10.440;2023-10-31T08:02:18;8.57;;;8.27;;
7154;SDS011;3619;53.784;10.440;2023-10-31T08:04:44;8.77;;;8.37;;
7154;SDS011;3619;53.784;10.440;2023-10-31T08:07:12;9.97;;;9.50;;
7154;SDS011;3619;53.784;10.440;2023-10-31T08:09:39;8.70;;;8.40;;
7154;SDS011;3619;53.784;10.440;2023-10-31T08:12:06;8.87;;;8.57;;
7154;SDS011;3619;53.784;10.440;2023-10-31T08:14:33;8.63;;;8.33;;
7154;SDS011;3619;53.784;10.440;2023-10-31T08:17:00;9.30;;;9.00;;
7154;SDS011;3619;53.784;10.440;2023-10-31T08:19:29;8.10;;;7.80;;
7154;SDS011;3619;53.784;10.440;2023-10-31T08:21:58;9.17;;;8.87;;
7154;SDS011;3619;53.784;10.440;2023-10-31T08:24:26;8.93;;;8.63;;
7154;SDS011;3619;53.784;10.440;2023-10-31T08:26:53;8.97;;;8.67;;
7154;SDS011;3619;53.784;10.440;2023-10-31T08:29:20;9.20;;;8.90;;
7154;SDS011;3619;53.784;10.440;2023-10-31T08:31:46;8.80;;;8.43;;
7154;SDS011;3619;53.784;10.440;2023-10-31T08:34:13;8.57;;;8.27;;
7154;SDS011;3619;53.784;10.440;2023-10-31T08:36:40;9.80;;;9.40;;
7154;SDS011;3619;53.784;10.440;2023-10-31T08:39:07;8.80;;;8.50;;
7154;SDS011;3619;53.784;10.440;2023-10-31T08:41:35;8.33;;;8.03;;
7154;SDS011;3619;53.784;10.440;2023-10-31T08:44:14;8.77;;;8.47;;
7154;SDS011;3619;53.784;10.440;2023-10-31T08:46:49;8.17;;;7.87;;
7154;SDS011;3619;53.784;10.440;2023-10-31T08:49:16;9.23;;;8.93;;
7154;SDS011;3619;53.784;10.440;2023-10-31T08:51:45;8.57;;;8.27;;
7154;SDS011;3619;53.784;10.440;2023-10-31T08:54:12;8.50;;;8.20;;
7154;SDS011;3619;53.784;10.440;2023-10-31T08:56:47;8.53;;;8.23;;
7154;SDS011;3619;53.784;10.440;2023-10-31T08:59:17;10.80;;;10.40;;
7154;SDS011;3619;53.784;10.440;2023-10-31T09:01:44;10.43;;;10.03;;
7154;SDS011;3619;53.784;10.440;2023-10-31T09:04:20;9.60;;;9.23;;
7154;SDS011;3619;53.784;10.440;2023-10-31T09:06:49;9.33;;;9.03;;
7154;SDS011;3619;53.784;10.440;2023-10-31T09:09:20;10.83;;;10.43;;
7154;SDS011;3619;53.784;10.440;2023-10-31T09:11:48;11.50;;;11.00;;
7154;SDS011;3619;53.784;10.440;2023-10-31T09:14:19;10.73;;;10.33;;
7154;SDS011;3619;53.784;10.440;2023-10-31T09:16:46;11.20;;;10.80;;
7154;SDS011;3619;53.784;10.440;2023-10-31T09:19:13;11.03;;;10.63;;
7154;SDS011;3619;53.784;10.440;2023-10-31T09:21:39;11.20;;;10.70;;
7154;SDS011;3619;53.784;10.440;2023-10-31T09:24:07;10.53;;;10.13;;
7154;SDS011;3619;53.784;10.440;2023-10-31T09:26:41;9.07;;;8.77;;
7154;SDS011;3619;53.784;10.440;2023-10-31T09:29:11;9.87;;;9.47;;
7154;SDS011;3619;53.784;10.440;2023-10-31T09:31:39;10.00;;;9.60;;
7154;SDS011;3619;53.784;10.440;2023-10-31T09:34:06;9.27;;;8.97;;
7154;SDS011;3619;53.784;10.440;2023-10-31T09:36:34;9.83;;;9.43;;
7154;SDS011;3619;53.784;10.440;2023-10-31T09:39:10;9.57;;;9.20;;
7154;SDS011;3619;53.784;10.440;2023-10-31T09:41:37;7.60;;;7.30;;
7154;SDS011;3619;53.784;10.440;2023-10-31T09:44:05;8.37;;;8.07;;
7154;SDS011;3619;53.784;10.440;2023-10-31T09:46:38;8.53;;;8.23;;
7154;SDS011;3619;53.784;10.440;2023-10-31T09:49:08;10.87;;;10.47;;
7154;SDS011;3619;53.784;10.440;2023-10-31T09:51:38;8.87;;;8.57;;
7154;SDS011;3619;53.784;10.440;2023-10-31T09:54:06;8.87;;;8.57;;
7154;SDS011;3619;53.784;10.440;2023-10-31T09:56:45;9.47;;;9.13;;
7154;SDS011;3619;53.784;10.440;2023-10-31T09:59:22;9.57;;;9.23;;
7154;SDS011;3619;53.784;10.440;2023-10-31T10:01:49;9.83;;;9.43;;
7154;SDS011;3619;53.784;10.440;2023-10-31T10:04:50;8.40;;;8.07;;
7154;SDS011;3619;53.784;10.440;2023-10-31T10:07:33;8.57;;;8.27;;
7154;SDS011;3619;53.784;10.440;2023-10-31T10:10:09;8.13;;;7.83;;
7154;SDS011;3619;53.784;10.440;2023-10-31T10:12:47;7.23;;;6.93;;
7154;SDS011;3619;53.784;10.440;2023-10-31T10:15:19;8.80;;;8.50;;
7154;SDS011;3619;53.784;10.440;2023-10-31T10:17:52;8.03;;;7.73;;
7154;SDS011;3619;53.784;10.440;2023-10-31T10:20:19;8.27;;;7.97;;
7154;SDS011;3619;53.784;10.440;2023-10-31T10:22:46;9.30;;;9.00;;
7154;SDS011;3619;53.784;10.440;2023-10-31T10:25:29;8.30;;;8.00;;
7154;SDS011;3619;53.784;10.440;2023-10-31T10:28:02;10.50;;;10.10;;
7154;SDS011;3619;53.784;10.440;2023-10-31T10:30:34;9.90;;;9.50;;
7154;SDS011;3619;53.784;10.440;2023-10-31T10:33:05;8.37;;;8.07;;
7154;SDS011;3619;53.784;10.440;2023-10-31T10:35:32;7.97;;;7.67;;
7154;SDS011;3619;53.784;10.440;2023-10-31T10:38:18;9.00;;;8.70;;
7154;SDS011;3619;53.784;10.440;2023-10-31T10:40:47;8.67;;;8.37;;
7154;SDS011;3619;53.784;10.440;2023-10-31T10:43:18;10.70;;;10.30;;
7154;SDS011;3619;53.784;10.440;2023-10-31T10:45:53;12.67;;;12.17;;
7154;SDS011;3619;53.784;10.440;2023-10-31T10:48:22;16.60;;;16.00;;
7154;SDS011;3619;53.784;10.440;2023-10-31T10:50:51;13.90;;;13.40;;
7154;SDS011;3619;53.784;10.440;2023-10-31T10:53:25;13.53;;;13.03;;
7154;SDS011;3619;53.784;10.440;2023-10-31T10:55:57;13.20;;;12.70;;
7154;SDS011;3619;53.784;10.440;2023-10-31T10:58:27;12.57;;;12.07;;
7154;SDS011;3619;53.784;10.440;2023-10-31T11:01:07;11.87;;;11.47;;
7154;SDS011;3619;53.784;10.440;2023-10-31T11:03:50;12.33;;;11.83;;
7154;SDS011;3619;53.784;10.440;2023-10-31T11:06:19;10.67;;;10.27;;
7154;SDS011;3619;53.784;10.440;2023-10-31T11:09:10;10.13;;;9.67;;
7154;SDS011;3619;53.784;10.440;2023-10-31T11:11:42;10.20;;;9.80;;
7154;SDS011;3619;53.784;10.440;2023-10-31T11:14:15;8.97;;;8.67;;
7154;SDS011;3619;53.784;10.440;2023-10-31T11:16:52;11.00;;;10.60;;
7154;SDS011;3619;53.784;10.440;2023-10-31T11:19:35;10.07;;;9.67;;
7154;SDS011;3619;53.784;10.440;2023-10-31T11:22:19;9.73;;;9.33;;
7154;SDS011;3619;53.784;10.440;2023-10-31T11:24:47;9.27;;;8.97;;
7154;SDS011;3619;53.784;10.440;2023-10-31T11:27:16;10.50;;;10.10;;
7154;SDS011;3619;53.784;10.440;2023-10-31T11:29:45;9.20;;;8.90;;
7154;SDS011;3619;53.784;10.440;2023-10-31T11:32:28;8.63;;;8.33;;
7154;SDS011;3619;53.784;10.440;2023-10-31T11:34:59;7.77;;;7.47;;
7154;SDS011;3619;53.784;10.440;2023-10-31T11:37:33;7.70;;;7.40;;
7154;SDS011;3619;53.784;10.440;2023-10-31T11:40:16;8.87;;;8.57;;
7154;SDS011;3619;53.784;10.440;2023-10-31T11:43:47;10.13;;;9.73;;
7154;SDS011;3619;53.784;10.440;2023-10-31T11:45:48;8.87;;;8.57;;
7154;SDS011;3619;53.784;10.440;2023-10-31T11:51:18;9.30;;;9.00;;
7154;SDS011;3619;53.784;10.440;2023-10-31T11:53:53;9.03;;;8.73;;
7154;SDS011;3619;53.784;10.440;2023-10-31T11:56:29;8.97;;;8.67;;
7154;SDS011;3619;53.784;10.440;2023-10-31T11:58:57;9.63;;;9.23;;
7154;SDS011;3619;53.784;10.440;2023-10-31T12:01:25;8.47;;;8.17;;
7154;SDS011;3619;53.784;10.440;2023-10-31T12:03:55;7.83;;;7.53;;
7154;SDS011;3619;53.784;10.440;2023-10-31T12:06:24;8.83;;;8.53;;
7154;SDS011;3619;53.784;10.440;2023-10-31T12:08:52;8.33;;;8.03;;
7154;SDS011;3619;53.784;10.440;2023-10-31T12:11:22;9.40;;;9.10;;
7154;SDS011;3619;53.784;10.440;2023-10-31T12:13:54;7.30;;;7.00;;
7154;SDS011;3619;53.784;10.440;2023-10-31T12:16:24;8.50;;;8.20;;
7154;SDS011;3619;53.784;10.440;2023-10-31T12:18:57;8.20;;;7.90;;
7154;SDS011;3619;53.784;10.440;2023-10-31T12:21:35;9.27;;;8.97;;
7154;SDS011;3619;53.784;10.440;2023-10-31T12:24:10;11.40;;;11.00;;
7154;SDS011;3619;53.784;10.440;2023-10-31T12:26:56;10.03;;;9.63;;
7154;SDS011;3619;53.784;10.440;2023-10-31T12:29:38;10.53;;;10.13;;
7154;SDS011;3619;53.784;10.440;2023-10-31T12:32:11;10.10;;;9.70;;
7154;SDS011;3619;53.784;10.440;2023-10-31T12:34:48;10.47;;;10.07;;
7154;SDS011;3619;53.784;10.440;2023-10-31T12:37:17;10.73;;;10.33;;
7154;SDS011;3619;53.784;10.440;2023-10-31T12:39:54;10.47;;;10.07;;
7154;SDS011;3619;53.784;10.440;2023-10-31T12:42:45;9.37;;;9.07;;
7154;SDS011;3619;53.784;10.440;2023-10-31T12:45:21;9.27;;;8.97;;
7154;SDS011;3619;53.784;10.440;2023-10-31T12:48:01;9.87;;;9.47;;
7154;SDS011;3619;53.784;10.440;2023-10-31T12:50:32;8.33;;;8.03;;
7154;SDS011;3619;53.784;10.440;2023-10-31T12:53:01;9.00;;;8.70;;
7154;SDS011;3619;53.784;10.440;2023-10-31T12:55:30;7.90;;;7.60;;
7154;SDS011;3619;53.784;10.440;2023-10-31T12:58:01;9.03;;;8.73;;
7154;SDS011;3619;53.784;10.440;2023-10-31T13:01:06;10.23;;;9.83;;
7154;SDS011;3619;53.784;10.440;2023-10-31T13:03:23;10.73;;;10.33;;
7154;SDS011;3619;53.784;10.440;2023-10-31T13:05:54;11.17;;;10.77;;
7154;SDS011;3619;53.784;10.440;2023-10-31T13:08:30;10.93;;;10.53;;
7154;SDS011;3619;53.784;10.440;2023-10-31T13:11:16;10.67;;;10.27;;
7154;SDS011;3619;53.784;10.440;2023-10-31T13:13:48;13.33;;;12.83;;
7154;SDS011;3619;53.784;10.440;2023-10-31T13:16:14;11.23;;;10.83;;
7154;SDS011;3619;53.784;10.440;2023-10-31T13:18:42;13.27;;;12.77;;
7154;SDS011;3619;53.784;10.440;2023-10-31T13:21:10;12.90;;;12.40;;
7154;SDS011;3619;53.784;10.440;2023-10-31T13:23:39;12.50;;;12.00;;
7154;SDS011;3619;53.784;10.440;2023-10-31T13:26:13;13.47;;;12.97;;
7154;SDS011;3619;53.784;10.440;2023-10-31T13:28:39;14.27;;;13.77;;
7154;SDS011;3619;53.784;10.440;2023-10-31T13:31:07;13.73;;;13.23;;
7154;SDS011;3619;53.784;10.440;2023-10-31T13:33:36;15.13;;;14.53;;
7154;SDS011;3619;53.784;10.440;2023-10-31T13:36:04;13.47;;;12.97;;
7154;SDS011;3619;53.784;10.440;2023-10-31T13:38:33;12.80;;;12.30;;
7154;SDS011;3619;53.784;10.440;2023-10-31T13:41:01;14.23;;;13.73;;
7154;SDS011;3619;53.784;10.440;2023-10-31T13:43:28;14.30;;;13.80;;
7154;SDS011;3619;53.784;10.440;2023-10-31T13:46:28;12.50;;;12.00;;
7154;SDS011;3619;53.784;10.440;2023-10-31T13:48:57;11.73;;;11.33;;
7154;SDS011;3619;53.784;10.440;2023-10-31T13:51:26;13.13;;;12.63;;
7154;SDS011;3619;53.784;10.440;2023-10-31T13:53:55;12.40;;;11.90;;
7154;SDS011;3619;53.784;10.440;2023-10-31T13:56:29;12.23;;;11.73;;
7154;SDS011;3619;53.784;10.440;2023-10-31T13:58:55;10.67;;;10.27;;
7154;SDS011;3619;53.784;10.440;2023-10-31T14:01:24;13.43;;;12.60;;
7154;SDS011;3619;53.784;10.440;2023-10-31T14:03:51;12.57;;;12.07;;
7154;SDS011;3619;53.784;10.440;2023-10-31T14:06:17;10.97;;;10.57;;
7154;SDS011;3619;53.784;10.440;2023-10-31T14:08:44;11.60;;;11.20;;
7154;SDS011;3619;53.784;10.440;2023-10-31T14:11:13;11.67;;;11.27;;
7154;SDS011;3619;53.784;10.440;2023-10-31T14:13:40;11.23;;;10.83;;
7154;SDS011;3619;53.784;10.440;2023-10-31T14:16:09;11.10;;;10.70;;
7154;SDS011;3619;53.784;10.440;2023-10-31T14:18:37;10.20;;;9.80;;
7154;SDS011;3619;53.784;10.440;2023-10-31T14:21:04;10.77;;;10.37;;
7154;SDS011;3619;53.784;10.440;2023-10-31T14:23:31;10.93;;;10.43;;
7154;SDS011;3619;53.784;10.440;2023-10-31T14:26:00;11.10;;;10.70;;
7154;SDS011;3619;53.784;10.440;2023-10-31T14:28:29;11.00;;;10.60;;
7154;SDS011;3619;53.784;10.440;2023-10-31T14:30:55;12.30;;;11.80;;
7154;SDS011;3619;53.784;10.440;2023-10-31T14:33:25;10.03;;;9.63;;
7154;SDS011;3619;53.784;10.440;2023-10-31T14:36:12;10.77;;;10.37;;
7154;SDS011;3619;53.784;10.440;2023-10-31T14:38:39;9.80;;;9.40;;
7154;SDS011;3619;53.784;10.440;2023-10-31T14:41:06;10.77;;;10.37;;
7154;SDS011;3619;53.784;10.440;2023-10-31T14:43:37;8.60;;;8.30;;
7154;SDS011;3619;53.784;10.440;2023-10-31T14:46:03;11.20;;;10.80;;
7154;SDS011;3619;53.784;10.440;2023-10-31T14:48:32;11.83;;;11.43;;
7154;SDS011;3619;53.784;10.440;2023-10-31T14:50:59;10.63;;;10.23;;
7154;SDS011;3619;53.784;10.440;2023-10-31T14:53:26;11.37;;;10.97;;
7154;SDS011;3619;53.784;10.440;2023-10-31T14:55:53;12.40;;;11.90;;
7154;SDS011;3619;53.784;10.440;2023-10-31T14:58:19;11.40;;;11.00;;
7154;SDS011;3619;53.784;10.440;2023-10-31T15:00:47;12.03;;;11.63;;
7154;SDS011;3619;53.784;10.440;2023-10-31T15:03:15;9.37;;;9.07;;
7154;SDS011;3619;53.784;10.440;2023-10-31T15:05:45;9.20;;;8.90;;
7154;SDS011;3619;53.784;10.440;2023-10-31T15:08:15;8.57;;;8.27;;
7154;SDS011;3619;53.784;10.440;2023-10-31T15:10:42;8.60;;;8.30;;
7154;SDS011;3619;53.784;10.440;2023-10-31T15:13:11;9.73;;;9.33;;